Time;durP1;ratioP1;P1;durP2;ratioP2;P2;SDS_P1;SDS_P2;PMS_P1;PMS_P2;Temp;Humidity;BMP_temperature;BMP_pressure;BME280_temperature;BME280_humidity;BME280_pressure;Samples;Min_cycle;Max_cycle;Signal;HPM_P1;HPM_P2
2021/12/17 00:01:02;;;;;;;20.67;12.18;;;11.10;99.90;;;;;;6309646;22;20037;-73
2021/12/17 00:03:37;;;;;;;19.50;12.20;;;11.00;99.90;;;;;;6307605;22;20048;-72
2021/12/17 00:08:37;;;;;;;22.50;12.40;;;10.80;99.90;;;;;;6335820;22;20007;-71
2021/12/17 00:11:05;;;;;;;19.20;12.25;;;10.80;99.90;;;;;;6336800;22;20450;-72
2021/12/17 00:13:32;;;;;;;18.73;11.50;;;10.90;99.90;;;;;;6335294;22;20041;-73
2021/12/17 00:15:59;;;;;;;21.30;11.88;;;10.90;99.90;;;;;;6337182;22;20003;-72
2021/12/17 00:18:37;;;;;;;21.48;11.45;;;10.80;99.90;;;;;;6335838;22;19999;-72
2021/12/17 00:48:36;;;;;;;53.30;12.60;;;11.10;99.90;;;;;;6251659;22;20003;-72
2021/12/17 00:53:46;;;;;;;22.67;9.73;;;11.00;99.90;;;;;;6335982;22;20002;-72
2021/12/17 00:56:12;;;;;;;15.75;9.48;;;11.10;99.90;;;;;;6335658;22;20049;-72
2021/12/17 00:58:38;;;;;;;19.95;10.05;;;11.10;99.90;;;;;;6335795;22;20029;-73
2021/12/17 01:01:04;;;;;;;15.75;10.13;;;11.20;99.90;;;;;;6336633;22;20346;-73
2021/12/17 01:03:30;;;;;;;16.75;10.60;;;11.10;99.90;;;;;;6336718;22;20044;-71
2021/12/17 01:05:55;;;;;;;20.70;9.77;;;11.10;99.90;;;;;;6336121;22;20048;-71
2021/12/17 01:08:21;;;;;;;20.00;10.88;;;11.00;99.90;;;;;;6308464;22;20011;-70
2021/12/17 01:10:53;;;;;;;21.23;10.05;;;10.90;99.90;;;;;;6308605;22;20009;-71
2021/12/17 01:13:19;;;;;;;24.30;11.05;;;10.90;99.90;;;;;;6336067;22;20006;-72
2021/12/17 01:15:45;;;;;;;17.17;10.82;;;10.80;99.90;;;;;;6336707;22;20415;-72
2021/12/17 01:18:16;;;;;;;19.55;10.50;;;10.90;99.90;;;;;;6335231;22;20006;-72
2021/12/17 01:36:36;;;;;;;23.98;11.35;;;10.90;99.90;;;;;;6334004;22;20048;-73
2021/12/17 01:42:04;;;;;;;19.27;11.13;;;10.90;99.90;;;;;;6334978;22;20002;-72
2021/12/17 01:44:30;;;;;;;17.25;10.75;;;10.90;99.90;;;;;;6335643;22;20323;-72
2021/12/17 01:46:56;;;;;;;;;;;10.90;99.90;;;;;;6334292;22;20115;-72
2021/12/17 02:00:13;;;;;;;21.52;11.77;;;10.80;99.90;;;;;;6334311;22;20013;-72
2021/12/17 02:02:47;;;;;;;18.70;11.68;;;10.90;99.90;;;;;;6335905;22;20067;-71
2021/12/17 02:05:14;;;;;;;22.10;12.57;;;11.00;99.90;;;;;;6332910;22;20131;-72
2021/12/17 02:07:42;;;;;;;20.02;11.40;;;10.90;99.90;;;;;;6336085;22;20003;-72
2021/12/17 02:21:27;;;;;;;20.83;12.70;;;10.80;99.90;;;;;;6335213;22;20006;-72
2021/12/17 02:31:57;;;;;;;25.50;13.57;;;10.70;99.90;;;;;;6333618;22;20002;-72
2021/12/17 02:36:53;;;;;;;21.33;12.30;;;10.90;99.90;;;;;;6334842;22;20460;-73
2021/12/17 02:47:14;;;;;;;17.20;11.18;;;10.90;99.90;;;;;;6333430;22;20010;-71
2021/12/17 02:49:43;;;;;;;16.42;10.95;;;10.80;99.90;;;;;;6334577;22;20011;-72
2021/12/17 02:52:09;;;;;;;20.83;11.10;;;10.80;99.90;;;;;;6332797;22;19995;-72
2021/12/17 02:54:37;;;;;;;21.98;12.30;;;10.80;99.90;;;;;;6306662;22;19999;-72
2021/12/17 02:57:05;;;;;;;17.55;11.68;;;10.70;99.90;;;;;;6335760;22;20011;-72
2021/12/17 02:59:33;;;;;;;17.98;11.93;;;10.70;99.90;;;;;;6333783;22;19999;-73
2021/12/17 03:01:59;;;;;;;20.58;11.13;;;10.70;99.90;;;;;;6306353;22;20003;-73
2021/12/17 03:04:27;;;;;;;16.40;10.48;;;10.70;99.90;;;;;;6334268;22;20044;-72
2021/12/17 03:06:54;;;;;;;19.00;11.57;;;10.90;99.90;;;;;;6333444;22;20021;-73
2021/12/17 03:09:30;;;;;;;19.00;10.90;;;10.80;99.90;;;;;;6334466;22;20330;-71
2021/12/17 03:11:56;;;;;;;18.60;11.13;;;10.70;99.90;;;;;;6333670;22;20485;-72
2021/12/17 03:14:22;;;;;;;18.92;11.05;;;10.60;99.90;;;;;;6334676;22;20062;-71
2021/12/17 03:16:59;;;;;;;20.80;10.88;;;10.70;99.90;;;;;;6335037;22;19999;-71
2021/12/17 03:23:26;;;;;;;17.83;9.82;;;10.90;99.90;;;;;;6333691;22;20002;-70
2021/12/17 03:24:55;;;;;;;21.35;10.90;;;10.70;99.90;;;;;;6334406;22;20021;-71
2021/12/17 03:27:20;;;;;;;21.17;11.10;;;10.90;99.90;;;;;;6336282;22;20086;-71
2021/12/17 03:29:46;;;;;;;18.23;10.98;;;10.70;99.90;;;;;;6335908;22;20007;-71
2021/12/17 03:32:12;;;;;;;19.98;11.43;;;10.70;99.90;;;;;;6334379;22;19999;-72
2021/12/17 03:34:37;;;;;;;18.77;10.07;;;10.70;99.90;;;;;;6335373;22;19998;-72
2021/12/17 03:37:04;;;;;;;14.23;9.07;;;10.70;99.90;;;;;;6336764;22;20145;-71
2021/12/17 03:39:30;;;;;;;;;;;10.80;99.90;;;;;;6335688;22;20074;-70
2021/12/17 03:41:57;;;;;;;12.95;8.57;;;10.90;99.90;;;;;;6336871;22;19898;-72
2021/12/17 03:44:23;;;;;;;14.32;9.00;;;10.90;99.90;;;;;;6336303;22;20002;-70
2021/12/17 03:46:50;;;;;;;39.08;11.43;;;10.90;99.90;;;;;;6335354;22;20002;-72
2021/12/17 03:49:17;;;;;;;18.30;10.00;;;10.80;99.90;;;;;;6309079;22;20379;-70
2021/12/17 03:52:04;;;;;;;18.92;10.07;;;10.80;99.90;;;;;;6333809;22;20044;-74
2021/12/17 03:54:35;;;;;;;19.85;11.07;;;10.80;99.90;;;;;;6336353;22;19998;-71
2021/12/17 03:57:04;;;;;;;18.60;10.52;;;10.80;99.90;;;;;;6335771;22;20014;-72
2021/12/17 03:59:30;;;;;;;17.45;10.50;;;10.80;99.90;;;;;;6335579;22;20034;-72
2021/12/17 04:01:56;;;;;;;32.58;10.68;;;10.90;99.90;;;;;;6335914;22;20350;-70
2021/12/17 04:04:21;;;;;;;21.17;9.98;;;10.90;99.90;;;;;;6336267;22;19998;-71
2021/12/17 04:06:47;;;;;;;23.90;11.15;;;10.80;99.90;;;;;;6334692;22;20067;-71
2021/12/17 04:09:13;;;;;;;47.95;12.80;;;10.70;99.90;;;;;;6335903;22;20010;-71
2021/12/17 04:11:39;;;;;;;17.48;10.80;;;10.70;99.90;;;;;;6335249;22;19995;-71
2021/12/17 04:14:05;;;;;;;21.08;10.35;;;10.80;99.90;;;;;;6335959;22;20058;-72
2021/12/17 04:16:32;;;;;;;20.25;10.98;;;10.80;99.90;;;;;;6335750;22;19999;-71
2021/12/17 04:19:03;;;;;;;17.10;10.48;;;10.80;99.90;;;;;;6335041;22;20048;-71
2021/12/17 04:21:29;;;;;;;17.90;10.75;;;10.80;99.90;;;;;;6308376;22;19999;-71
2021/12/17 04:23:55;;;;;;;19.52;10.95;;;10.90;99.90;;;;;;6335303;22;20009;-72
2021/12/17 04:26:22;;;;;;;23.48;10.70;;;10.90;99.90;;;;;;6334725;22;20010;-72
2021/12/17 04:28:51;;;;;;;16.92;10.90;;;10.80;99.90;;;;;;6334144;22;20010;-70
2021/12/17 04:31:19;;;;;;;19.70;11.20;;;10.90;99.90;;;;;;6307250;22;20418;-71
2021/12/17 04:33:45;;;;;;;16.20;11.23;;;10.80;99.90;;;;;;6334925;22;19999;-72
2021/12/17 04:36:20;;;;;;;21.67;11.45;;;10.80;99.90;;;;;;6336767;22;20002;-71
2021/12/17 04:38:46;;;;;;;17.42;11.00;;;10.80;99.90;;;;;;6335800;22;19998;-72
2021/12/17 04:44:04;;;;;;;19.33;12.27;;;10.70;99.90;;;;;;6337486;22;20025;-72
2021/12/17 04:46:37;;;;;;;21.85;12.18;;;10.50;99.90;;;;;;6335027;22;19999;-71
2021/12/17 04:59:42;;;;;;;16.90;11.70;;;10.90;99.90;;;;;;6334229;22;20334;-71
2021/12/17 05:02:08;;;;;;;22.88;11.55;;;10.80;99.90;;;;;;6335663;22;19994;-71
2021/12/17 05:04:34;;;;;;;18.35;11.43;;;10.70;99.90;;;;;;6337305;22;19999;-71
2021/12/17 05:07:02;;;;;;;20.17;11.90;;;10.70;99.90;;;;;;6336200;22;20006;-72
2021/12/17 05:09:37;;;;;;;20.88;11.77;;;10.70;99.90;;;;;;6335920;22;20059;-71
2021/12/17 05:20:55;;;;;;;25.58;11.55;;;10.50;99.90;;;;;;6335246;22;20434;-71
2021/12/17 05:23:01;;;;;;;22.08;11.60;;;10.60;99.90;;;;;;6319156;22;20005;-72
2021/12/17 05:25:29;;;;;;;17.50;10.95;;;10.60;99.90;;;;;;6334948;22;20077;-71
2021/12/17 05:28:00;;;;;;;25.42;11.85;;;10.70;99.90;;;;;;6337843;22;20003;-71
2021/12/17 05:30:27;;;;;;;31.02;12.00;;;10.70;99.90;;;;;;6337262;22;20003;-72
2021/12/17 05:32:53;;;;;;;28.30;13.20;;;10.70;99.90;;;;;;6335712;22;20003;-71
2021/12/17 05:35:18;;;;;;;19.40;11.32;;;10.60;99.90;;;;;;6308769;22;20446;-71
2021/12/17 05:37:44;;;;;;;27.77;12.15;;;10.60;99.90;;;;;;6336620;22;19999;-72
2021/12/17 05:40:11;;;;;;;20.80;11.55;;;10.50;99.90;;;;;;6334632;22;20026;-72
2021/12/17 05:42:36;;;;;;;26.83;11.15;;;10.40;99.90;;;;;;6336164;22;20006;-70
2021/12/17 05:45:09;;;;;;;24.50;11.32;;;10.40;99.90;;;;;;6335491;22;19998;-70
2021/12/17 05:47:35;;;;;;;31.17;12.27;;;10.40;99.90;;;;;;6307463;22;20037;-72
2021/12/17 05:50:00;;;;;;;23.85;12.27;;;10.30;99.90;;;;;;6335998;22;19999;-71
2021/12/17 05:52:26;;;;;;;21.65;12.18;;;10.40;99.90;;;;;;6334754;22;20066;-70
2021/12/17 05:54:52;;;;;;;28.42;12.65;;;10.40;99.90;;;;;;6336369;22;19999;-70
2021/12/17 05:57:17;;;;;;;36.15;13.30;;;10.40;99.90;;;;;;6337772;22;20425;-70
2021/12/17 05:59:43;;;;;;;74.20;15.13;;;10.50;99.90;;;;;;6335214;22;20030;-73
2021/12/17 06:02:14;;;;;;;35.05;12.93;;;10.50;99.90;;;;;;6308033;22;20327;-71
2021/12/17 06:04:39;;;;;;;25.13;11.73;;;10.40;99.90;;;;;;6336120;22;19994;-71
2021/12/17 06:07:05;;;;;;;21.65;11.88;;;10.50;99.90;;;;;;6335401;22;20304;-72
2021/12/17 06:09:31;;;;;;;42.83;14.05;;;10.50;99.90;;;;;;6336295;22;20083;-71
2021/12/17 06:11:57;;;;;;;20.58;11.27;;;10.50;99.90;;;;;;6334005;22;20418;-71
2021/12/17 06:14:23;;;;;;;20.58;10.50;;;10.50;99.90;;;;;;6335607;22;20002;-72
2021/12/17 06:16:48;;;;;;;17.45;10.35;;;10.50;99.90;;;;;;6334927;22;20033;-72
2021/12/17 06:19:17;;;;;;;24.45;11.27;;;10.70;99.90;;;;;;6334750;22;20362;-71
2021/12/17 06:21:43;;;;;;;20.08;10.70;;;10.70;99.90;;;;;;6335775;22;20001;-71
2021/12/17 06:24:09;;;;;;;21.92;11.70;;;10.60;99.90;;;;;;6335198;22;20017;-71
2021/12/17 06:26:35;;;;;;;;;;;10.50;99.90;;;;;;6334079;22;20014;-75
2021/12/17 06:29:00;;;;;;;57.38;13.52;;;10.30;99.90;;;;;;6334995;22;19902;-72
2021/12/17 06:31:27;;;;;;;23.80;11.75;;;10.40;99.90;;;;;;6306914;22;20010;-72
2021/12/17 06:33:53;;;;;;;19.23;10.95;;;10.30;99.90;;;;;;6332934;22;20002;-72
2021/12/17 06:36:19;;;;;;;19.27;10.95;;;10.30;99.90;;;;;;6334542;22;20006;-71
2021/12/17 06:38:44;;;;;;;23.20;10.93;;;10.40;99.90;;;;;;6333177;22;19999;-71
2021/12/17 06:41:10;;;;;;;24.35;10.40;;;10.50;99.90;;;;;;6335213;22;19995;-70
2021/12/17 06:43:42;;;;;;;27.63;10.93;;;10.40;99.90;;;;;;6335097;22;20472;-70
2021/12/17 06:49:09;;;;;;;25.23;9.60;;;10.50;99.90;;;;;;6335337;22;20130;-71
2021/12/17 07:10:27;;;;;;;24.52;10.50;;;10.50;99.90;;;;;;6335294;22;20018;-70
2021/12/17 07:23:49;;;;;;;15.93;8.85;;;10.60;99.90;;;;;;6338302;22;20017;-72
2021/12/17 07:34:08;;;;;;;38.65;10.25;;;10.50;99.90;;;;;;6334335;22;20078;-70
2021/12/17 07:36:44;;;;;;;19.83;8.90;;;10.60;99.90;;;;;;6336560;22;20002;-73
2021/12/17 07:39:09;;;;;;;23.73;9.82;;;10.60;99.90;;;;;;6335169;22;20002;-71
2021/12/17 07:41:35;;;;;;;16.10;9.57;;;10.60;99.90;;;;;;6336795;22;20326;-72
2021/12/17 07:44:02;;;;;;;19.17;9.80;;;10.50;99.90;;;;;;6335550;22;20126;-71
2021/12/17 07:46:47;;;;;;;22.33;8.73;;;10.50;99.90;;;;;;6333755;22;20386;-71
2021/12/17 07:49:13;;;;;;;16.52;9.02;;;10.60;99.90;;;;;;6335341;22;20078;-72
2021/12/17 07:51:38;;;;;;;19.17;10.05;;;10.60;99.90;;;;;;6333906;22;19999;-73
2021/12/17 07:54:04;;;;;;;19.15;10.05;;;10.40;99.90;;;;;;6308316;22;20025;-71
2021/12/17 07:56:37;;;;;;;17.00;10.30;;;10.40;99.90;;;;;;6335944;22;20039;-70
2021/12/17 07:59:07;;;;;;;16.90;9.70;;;10.40;99.90;;;;;;6335414;22;20014;-71
2021/12/17 08:01:35;;;;;;;17.98;9.98;;;10.50;99.90;;;;;;6335104;22;20094;-72
2021/12/17 08:04:01;;;;;;;24.95;10.57;;;10.50;99.90;;;;;;6336092;22;20006;-72
2021/12/17 08:06:26;;;;;;;17.98;8.40;;;10.50;99.90;;;;;;6333570;22;19995;-71
2021/12/17 08:08:52;;;;;;;18.85;9.65;;;10.50;99.90;;;;;;6307690;22;20461;-73
2021/12/17 08:11:18;;;;;;;21.00;10.45;;;10.50;99.90;;;;;;6334787;22;20043;-73
2021/12/17 08:13:45;;;;;;;18.08;10.85;;;10.50;99.90;;;;;;6306847;22;19999;-72
2021/12/17 08:32:06;;;;;;;23.08;12.32;;;10.50;99.90;;;;;;6337679;22;20005;-72
2021/12/17 08:34:32;;;;;;;32.85;12.10;;;10.60;99.90;;;;;;6336356;22;20003;-73
2021/12/17 08:36:58;;;;;;;23.27;11.15;;;10.50;99.90;;;;;;6309080;22;20002;-71
2021/12/17 08:39:25;;;;;;;17.83;9.52;;;10.40;99.90;;;;;;6333651;22;19994;-72
2021/12/17 08:41:53;;;;;;;17.88;9.75;;;10.50;99.90;;;;;;6306855;22;20007;-72
2021/12/17 08:44:20;;;;;;;16.70;9.02;;;10.60;99.90;;;;;;6333749;22;19999;-71
2021/12/17 08:46:45;;;;;;;20.65;9.43;;;10.60;99.90;;;;;;6332771;22;19998;-73
2021/12/17 08:49:11;;;;;;;21.58;10.45;;;10.60;99.90;;;;;;6333064;22;20365;-72
2021/12/17 08:51:38;;;;;;;30.13;11.57;;;10.60;99.90;;;;;;6333374;22;20002;-72
2021/12/17 08:54:05;;;;;;;24.75;11.82;;;10.50;99.90;;;;;;6335405;22;19999;-73
2021/12/17 08:56:33;;;;;;;25.70;13.20;;;10.60;99.90;;;;;;6334797;22;20094;-73
2021/12/17 08:59:05;;;;;;;27.23;12.93;;;10.60;99.90;;;;;;6333112;22;20026;-72
2021/12/17 09:01:31;;;;;;;27.00;12.25;;;10.50;99.90;;;;;;6332690;22;20007;-72
2021/12/17 09:03:57;;;;;;;26.33;11.15;;;10.40;99.90;;;;;;6335553;22;20441;-71
2021/12/17 09:06:26;;;;;;;20.92;11.15;;;10.60;99.90;;;;;;6334168;22;20059;-72
2021/12/17 09:08:56;;;;;;;19.67;10.43;;;10.70;99.90;;;;;;6335676;22;20078;-72
2021/12/17 09:11:23;;;;;;;31.27;10.90;;;10.70;99.90;;;;;;6335096;22;20017;-73
2021/12/17 09:13:51;;;;;;;27.73;12.25;;;10.70;99.90;;;;;;6334278;22;20063;-70
2021/12/17 09:16:20;;;;;;;17.40;11.27;;;10.70;99.90;;;;;;6334011;22;20002;-72
2021/12/17 09:18:50;;;;;;;17.48;9.40;;;10.50;99.90;;;;;;6333849;22;20013;-71
2021/12/17 09:21:17;;;;;;;24.23;10.32;;;10.50;99.90;;;;;;6336679;22;20062;-72
2021/12/17 09:23:43;;;;;;;20.33;9.93;;;10.60;99.90;;;;;;6336728;22;19995;-73
2021/12/17 09:26:10;;;;;;;64.72;10.88;;;10.70;99.90;;;;;;6335351;22;20046;-72
2021/12/17 09:28:36;;;;;;;15.27;9.80;;;10.80;99.90;;;;;;6308626;22;20015;-76
2021/12/17 09:31:02;;;;;;;26.17;10.27;;;10.80;99.90;;;;;;6308292;22;20445;-72
2021/12/17 09:33:28;;;;;;;22.40;10.20;;;10.90;99.90;;;;;;6334038;22;20025;-73
2021/12/17 09:35:54;;;;;;;19.65;10.10;;;10.70;99.90;;;;;;6334835;22;20043;-73
2021/12/17 09:38:19;;;;;;;25.42;10.60;;;10.80;99.90;;;;;;6334242;22;20018;-73
2021/12/17 09:40:45;;;;;;;25.85;10.98;;;10.90;99.90;;;;;;6334618;22;19999;-73
2021/12/17 09:43:14;;;;;;;;;;;10.90;99.90;;;;;;6335709;22;20002;-74
2021/12/17 09:45:43;;;;;;;23.95;12.10;;;10.90;99.90;;;;;;6336941;22;20234;-73
2021/12/17 09:48:16;;;;;;;24.45;12.25;;;11.00;99.90;;;;;;6338487;22;20043;-75
2021/12/17 09:50:42;;;;;;;24.25;11.68;;;11.10;99.90;;;;;;6310954;22;20010;-73
2021/12/17 09:53:08;;;;;;;31.10;12.93;;;11.10;99.90;;;;;;6306499;22;20134;-73
2021/12/17 09:55:34;;;;;;;18.33;10.80;;;11.20;99.90;;;;;;6309712;22;20384;-73
2021/12/17 09:58:00;;;;;;;19.60;10.50;;;11.10;99.90;;;;;;6310280;22;20754;-73
2021/12/17 10:00:27;;;;;;;19.00;11.18;;;11.00;99.90;;;;;;6337002;22;19995;-75
2021/12/17 10:02:54;;;;;;;20.63;10.93;;;11.00;99.90;;;;;;6307650;22;20372;-72
2021/12/17 10:05:30;;;;;;;20.60;10.88;;;10.90;99.90;;;;;;6305639;22;20375;-75
2021/12/17 10:08:10;;;;;;;29.75;11.05;;;10.90;99.90;;;;;;6307547;22;20014;-72
2021/12/17 10:10:42;;;;;;;19.75;10.18;;;10.90;99.90;;;;;;6336749;22;20003;-73
2021/12/17 10:13:18;;;;;;;22.33;10.18;;;10.80;99.90;;;;;;6308656;22;20014;-72
2021/12/17 10:15:47;;;;;;;19.48;10.05;;;10.80;99.90;;;;;;6333629;22;20117;-73
2021/12/17 10:18:13;;;;;;;18.10;10.15;;;10.70;99.90;;;;;;6334787;22;20011;-73
2021/12/17 10:20:57;;;;;;;19.42;10.75;;;10.80;99.90;;;;;;6336224;22;20005;-73
2021/12/17 10:23:25;;;;;;;18.55;10.43;;;10.90;99.90;;;;;;6307948;22;20402;-72
2021/12/17 10:25:51;;;;;;;20.05;9.98;;;11.00;99.90;;;;;;6333509;22;19998;-72
2021/12/17 10:28:17;;;;;;;23.05;9.57;;;10.90;99.90;;;;;;6334245;22;20367;-73
2021/12/17 10:30:46;;;;;;;19.30;10.43;;;10.90;99.90;;;;;;6334268;22;20041;-73
2021/12/17 10:33:19;;;;;;;18.50;11.27;;;11.00;99.90;;;;;;6334165;22;20025;-71
2021/12/17 10:35:51;;;;;;;17.90;10.48;;;10.90;99.90;;;;;;6335112;22;20071;-72
2021/12/17 10:38:23;;;;;;;18.00;11.18;;;11.00;99.90;;;;;;6333770;22;19995;-71
2021/12/17 10:40:57;;;;;;;18.95;10.45;;;10.90;99.90;;;;;;6336062;22;20077;-73
2021/12/17 10:43:30;;;;;;;24.33;10.50;;;11.00;99.90;;;;;;6336704;22;20007;-70
2021/12/17 10:46:06;;;;;;;23.65;11.80;;;11.10;99.90;;;;;;6335217;22;20023;-71
2021/12/17 10:48:47;;;;;;;22.13;12.00;;;11.20;99.90;;;;;;6336988;22;20019;-71
2021/12/17 10:52:00;;;;;;;30.75;12.50;;;11.00;99.90;;;;;;6338096;22;20330;-71
2021/12/17 10:54:08;;;;;;;20.40;10.55;;;11.10;99.90;;;;;;6314552;22;20463;-73
2021/12/17 10:56:47;;;;;;;14.57;8.98;;;11.00;99.90;;;;;;6333392;22;20091;-72
2021/12/17 10:59:19;;;;;;;21.00;8.77;;;10.90;99.90;;;;;;6306003;22;20003;-71
2021/12/17 11:01:54;;;;;;;16.00;9.13;;;10.90;99.90;;;;;;6335049;22;20013;-74
2021/12/17 11:04:23;;;;;;;15.60;8.82;;;10.90;99.90;;;;;;6334680;22;20014;-72
2021/12/17 11:06:58;;;;;;;15.45;7.60;;;10.90;99.90;;;;;;6334765;22;20010;-72
2021/12/17 11:09:54;;;;;;;14.88;9.07;;;10.90;99.90;;;;;;6335708;22;20376;-72
2021/12/17 11:12:38;;;;;;;20.55;9.77;;;10.90;99.90;;;;;;6290160;22;20007;-72
2021/12/17 11:15:24;;;;;;;17.40;8.95;;;10.90;99.90;;;;;;6335946;22;20056;-72
2021/12/17 11:17:58;;;;;;;21.05;11.25;;;11.20;99.90;;;;;;6335502;22;20395;-72
2021/12/17 11:20:28;;;;;;;21.75;10.43;;;11.20;99.90;;;;;;6337582;22;20326;-71
2021/12/17 11:22:56;;;;;;;22.63;10.68;;;11.30;99.90;;;;;;6339423;22;20007;-71
2021/12/17 11:25:24;;;;;;;18.05;9.30;;;11.30;99.90;;;;;;6335101;22;19995;-72
2021/12/17 11:27:51;;;;;;;22.50;10.25;;;11.40;99.90;;;;;;6333168;22;20085;-71
2021/12/17 11:30:20;;;;;;;16.88;9.82;;;11.50;99.90;;;;;;6335374;22;20006;-73
2021/12/17 11:32:48;;;;;;;14.27;8.48;;;11.50;99.90;;;;;;6305755;22;19999;-72
2021/12/17 11:35:17;;;;;;;17.75;8.63;;;11.30;99.90;;;;;;6281011;22;20007;-71
2021/12/17 11:37:46;;;;;;;15.90;8.65;;;11.20;99.90;;;;;;6334767;22;20024;-73
2021/12/17 11:40:25;;;;;;;25.27;9.63;;;11.10;99.90;;;;;;6333801;22;19999;-71
2021/12/17 11:43:01;;;;;;;23.92;9.32;;;11.10;99.90;;;;;;6308060;22;20014;-72
2021/12/17 11:45:29;;;;;;;13.88;8.30;;;11.20;99.90;;;;;;6336083;22;19999;-71
2021/12/17 11:48:10;;;;;;;15.80;7.65;;;11.40;99.90;;;;;;6337005;22;19999;-73
2021/12/17 11:50:36;;;;;;;24.13;9.18;;;11.40;99.90;;;;;;6335808;22;20047;-73
2021/12/17 11:53:17;;;;;;;23.83;9.50;;;11.30;99.90;;;;;;6338492;22;19998;-73
2021/12/17 11:55:46;;;;;;;19.15;9.05;;;11.30;99.90;;;;;;6336980;22;20014;-72
2021/12/17 11:58:15;;;;;;;14.90;8.25;;;11.50;99.90;;;;;;6337161;22;20098;-73
2021/12/17 12:00:41;;;;;;;17.30;8.45;;;11.40;99.90;;;;;;6336031;22;20050;-73
2021/12/17 12:03:13;;;;;;;16.13;7.93;;;11.40;99.90;;;;;;6333221;22;19995;-73
2021/12/17 12:05:42;;;;;;;18.02;7.57;;;11.10;99.90;;;;;;6336695;22;20430;-73
2021/12/17 12:11:26;;;;;;;16.85;8.40;;;11.00;99.90;;;;;;6333552;22;20007;-72
2021/12/17 12:13:58;;;;;;;20.50;7.93;;;11.10;99.90;;;;;;6336271;22;20024;-73
2021/12/17 12:16:26;;;;;;;16.15;7.70;;;11.10;99.90;;;;;;6336957;22;20443;-72
2021/12/17 12:18:54;;;;;;;22.23;8.27;;;11.20;99.90;;;;;;6339482;22;20010;-72
2021/12/17 12:21:23;;;;;;;14.85;8.55;;;11.10;99.90;;;;;;6338116;22;19995;-72
2021/12/17 12:24:12;;;;;;;19.52;8.40;;;11.00;99.90;;;;;;6337216;22;20014;-72
2021/12/17 12:26:49;;;;;;;22.70;9.30;;;11.10;99.90;;;;;;6335828;22;20082;-71
2021/12/17 12:29:24;;;;;;;17.92;9.13;;;11.10;99.90;;;;;;6338318;22;20026;-71
2021/12/17 12:31:54;;;;;;;25.15;9.52;;;11.30;99.90;;;;;;6335753;22;20011;-71
2021/12/17 12:34:34;;;;;;;21.67;8.23;;;11.20;99.90;;;;;;6336397;22;19999;-71
2021/12/17 12:37:18;;;;;;;21.73;9.25;;;11.10;99.90;;;;;;6337728;22;19995;-71
2021/12/17 12:39:49;;;;;;;17.45;8.90;;;11.00;99.90;;;;;;6334777;22;20327;-71
2021/12/17 12:42:20;;;;;;;20.52;9.13;;;11.30;99.90;;;;;;6336176;22;20003;-71
2021/12/17 12:44:49;;;;;;;15.25;9.40;;;11.50;99.90;;;;;;6313132;22;20003;-73
2021/12/17 12:47:26;;;;;;;21.30;10.02;;;11.60;99.90;;;;;;6338348;22;20039;-72
2021/12/17 12:49:59;;;;;;;26.98;11.45;;;11.50;99.90;;;;;;6340208;22;20011;-70
2021/12/17 12:52:31;;;;;;;20.38;10.63;;;11.40;99.90;;;;;;6339861;22;20064;-71
2021/12/17 12:55:12;;;;;;;17.90;10.27;;;11.40;99.90;;;;;;6337298;22;20386;-72
2021/12/17 12:57:47;;;;;;;20.77;11.45;;;11.20;99.90;;;;;;6272101;22;20015;-72
2021/12/17 13:00:18;;;;;;;22.33;10.98;;;11.20;99.90;;;;;;6270128;22;20016;-73
2021/12/17 13:02:47;;;;;;;22.25;11.80;;;11.30;99.90;;;;;;6272021;22;20039;-71
2021/12/17 13:05:13;;;;;;;19.33;11.75;;;11.30;99.90;;;;;;6268591;22;20008;-72
2021/12/17 13:07:48;;;;;;;23.05;12.27;;;11.10;99.90;;;;;;6271710;22;20437;-74
2021/12/17 13:10:19;;;;;;;20.13;10.90;;;10.90;99.90;;;;;;6271163;22;20011;-73
2021/12/17 13:13:18;;;;;;;19.67;10.38;;;10.90;99.90;;;;;;6272453;22;20000;-72
2021/12/17 13:24:27;;;;;;;20.15;11.57;;;11.20;99.90;;;;;;6273359;22;20088;-71
2021/12/17 13:27:10;;;;;;;20.05;11.50;;;11.30;99.90;;;;;;6203211;22;20042;-72
2021/12/17 13:29:38;;;;;;;41.83;13.15;;;11.30;99.90;;;;;;6272932;22;20007;-72
2021/12/17 13:32:14;;;;;;;24.15;12.68;;;11.30;99.90;;;;;;6269853;22;19996;-73
2021/12/17 13:34:44;;;;;;;19.92;12.48;;;11.30;99.90;;;;;;6271974;22;20011;-74
2021/12/17 13:37:19;;;;;;;31.35;14.93;;;11.40;99.90;;;;;;6271030;22;20083;-72
2021/12/17 13:39:58;;;;;;;22.83;12.18;;;11.50;99.90;;;;;;6270796;22;20070;-73
2021/12/17 13:42:32;;;;;;;20.98;12.52;;;11.40;99.90;;;;;;6270590;22;20012;-72
2021/12/17 13:45:13;;;;;;;22.20;12.13;;;11.20;99.90;;;;;;6271780;22;20007;-72
2021/12/17 13:47:46;;;;;;;19.55;12.32;;;11.20;99.90;;;;;;6271511;22;20100;-72
2021/12/17 13:50:40;;;;;;;16.27;11.35;;;11.20;99.90;;;;;;6272927;22;20061;-72
2021/12/17 13:53:13;;;;;;;19.98;11.90;;;11.10;99.90;;;;;;6268962;22;20424;-75
2021/12/17 13:55:42;;;;;;;20.42;13.07;;;11.20;99.90;;;;;;6284295;22;20015;-71
2021/12/17 13:58:13;;;;;;;27.35;13.32;;;11.20;99.90;;;;;;6335812;22;20374;-71
2021/12/17 14:00:43;;;;;;;27.05;14.25;;;11.30;99.90;;;;;;6333915;22;20038;-70
2021/12/17 14:03:11;;;;;;;23.50;14.00;;;11.30;99.90;;;;;;6335167;22;20373;-71
2021/12/17 14:05:41;;;;;;;20.50;13.43;;;11.00;99.90;;;;;;6332977;22;20453;-72
2021/12/17 14:08:18;;;;;;;25.45;13.70;;;10.90;99.90;;;;;;6332532;22;20014;-71
2021/12/17 14:10:44;;;;;;;26.60;13.68;;;10.90;99.90;;;;;;6334752;22;20007;-72
2021/12/17 14:13:17;;;;;;;;;;;11.00;99.90;;;;;;6331987;22;20031;-71
2021/12/17 14:15:43;;;;;;;18.67;12.18;;;11.20;99.90;;;;;;6334665;22;20002;-72
2021/12/17 14:18:10;;;;;;;18.40;10.95;;;11.10;99.90;;;;;;6334723;22;20003;-72
2021/12/17 14:20:46;;;;;;;17.60;11.10;;;11.00;99.90;;;;;;6335066;22;20018;-71
2021/12/17 14:23:26;;;;;;;24.23;11.98;;;11.10;99.90;;;;;;6334629;22;20342;-71
2021/12/17 14:25:53;;;;;;;20.55;10.43;;;10.90;99.90;;;;;;6309029;22;20007;-71
2021/12/17 14:28:25;;;;;;;14.13;9.82;;;10.90;99.90;;;;;;6336716;22;20349;-72
2021/12/17 14:31:09;;;;;;;17.88;10.80;;;10.80;99.90;;;;;;6334608;22;19999;-71
2021/12/17 14:33:35;;;;;;;25.00;10.50;;;10.80;99.90;;;;;;6333843;22;20399;-71
2021/12/17 14:36:04;;;;;;;21.98;10.20;;;10.90;99.90;;;;;;6334604;22;20030;-73
2021/12/17 14:38:34;;;;;;;20.33;10.02;;;11.10;99.90;;;;;;6332551;22;20033;-72
2021/12/17 14:41:01;;;;;;;22.35;9.18;;;11.30;99.90;;;;;;6328381;22;20090;-73
2021/12/17 14:43:41;;;;;;;20.98;10.20;;;11.10;99.90;;;;;;6333631;22;20003;-72
2021/12/17 14:46:23;;;;;;;15.80;8.95;;;11.10;99.90;;;;;;6333952;22;20073;-72
2021/12/17 15:02:39;;;;;;;15.20;8.90;;;10.90;99.90;;;;;;6333693;22;19999;-72
2021/12/17 15:05:07;;;;;;;19.15;10.30;;;10.90;99.90;;;;;;6332623;22;20306;-72
2021/12/17 15:07:33;;;;;;;15.80;9.55;;;10.90;99.90;;;;;;6332318;22;20418;-70
2021/12/17 15:09:59;;;;;;;20.77;9.35;;;10.90;99.90;;;;;;6331769;22;20003;-70
2021/12/17 15:14:51;;;;;;;17.70;9.30;;;10.90;99.90;;;;;;6336225;22;20003;-71
2021/12/17 15:17:17;;;;;;;;;;;11.10;99.90;;;;;;6340496;22;20533;-70
2021/12/17 15:19:43;;;;;;;17.05;10.13;;;11.00;99.90;;;;;;6335222;22;19899;-71
2021/12/17 15:22:08;;;;;;;16.80;9.88;;;11.00;99.90;;;;;;6336873;22;20052;-71
2021/12/17 15:24:34;;;;;;;17.17;10.57;;;10.90;99.90;;;;;;6306944;22;20026;-72
2021/12/17 15:27:00;;;;;;;24.98;11.63;;;10.80;99.90;;;;;;6345000;22;20017;-70
2021/12/17 15:29:25;;;;;;;24.00;11.32;;;10.90;99.90;;;;;;6336101;22;20005;-71
2021/12/17 15:31:53;;;;;;;17.30;10.02;;;10.90;99.90;;;;;;6334695;22;20005;-70
2021/12/17 15:34:19;;;;;;;21.65;10.88;;;10.90;99.90;;;;;;6307505;22;20013;-72
2021/12/17 15:36:45;;;;;;;21.17;11.68;;;10.70;99.90;;;;;;6335347;22;20074;-72
2021/12/17 15:39:11;;;;;;;20.75;11.25;;;10.70;99.90;;;;;;6305070;22;20408;-71
2021/12/17 15:41:40;;;;;;;;;;;10.70;99.90;;;;;;6335250;22;20075;-70
2021/12/17 15:44:07;;;;;;;25.85;12.10;;;10.50;99.90;;;;;;6306135;22;19985;-69
2021/12/17 15:46:33;;;;;;;24.13;12.80;;;10.50;99.90;;;;;;6334371;22;19999;-71
2021/12/17 15:48:59;;;;;;;28.17;13.40;;;10.60;99.90;;;;;;6334789;22;20002;-72
2021/12/17 15:51:24;;;;;;;28.40;13.73;;;10.50;99.90;;;;;;6333572;22;20009;-72
2021/12/17 15:53:50;;;;;;;27.52;12.85;;;10.50;99.90;;;;;;6333065;22;20326;-71
2021/12/17 15:56:16;;;;;;;34.50;14.55;;;10.40;99.90;;;;;;6335238;22;20033;-71
2021/12/17 15:58:41;;;;;;;26.95;15.20;;;10.40;99.90;;;;;;6331593;22;20311;-71
2021/12/17 16:01:07;;;;;;;34.30;15.38;;;10.30;99.90;;;;;;6334909;22;20033;-70
2021/12/17 16:03:36;;;;;;;28.83;15.85;;;10.30;99.90;;;;;;6333139;22;20033;-70